Time;durP1;ratioP1;P1;durP2;ratioP2;P2;SDS_P1;SDS_P2;PMS_P1;PMS_P2;Temp;Humidity;BMP_temperature;BMP_pressure;BME280_temperature;BME280_humidity;BME280_pressure;Samples;Min_cycle;Max_cycle;Signal;HPM_P1;HPM_P2
2022/01/06 00:03:13;;;;;;;5.75;1.80;;;;;;;5.29;83.44;98939.44;2955385;80;21019;-72
2022/01/06 00:07:15;;;;;;;5.60;2.67;;;;;;;5.28;83.65;98956.23;2913733;81;21042;-72
2022/01/06 00:11:16;;;;;;;4.80;2.27;;;;;;;5.28;84.33;98960.18;2955322;80;21015;-71
2022/01/06 00:15:32;;;;;;;3.33;2.22;;;;;;;5.29;84.81;98971.08;2913867;81;21026;-72
2022/01/06 00:23:43;;;;;;;3.52;2.08;;;;;;;5.24;85.26;98978.53;2911977;80;21027;-72
2022/01/06 00:27:45;;;;;;;2.15;1.35;;;;;;;5.18;85.53;98973.77;2953663;80;21018;-72
2022/01/06 00:31:47;;;;;;;2.25;1.57;;;;;;;5.13;85.49;98968.86;2921248;81;20982;-73
2022/01/06 00:35:49;;;;;;;3.60;1.95;;;;;;;5.04;85.81;98981.47;2911097;82;21030;-73
2022/01/06 00:39:51;;;;;;;3.90;1.70;;;;;;;4.98;86.48;98981.47;2952558;80;20964;-70
2022/01/06 00:43:55;;;;;;;2.25;2.00;;;;;;;4.95;86.52;98984.36;2901721;80;21043;-73
2022/01/06 00:47:57;;;;;;;4.85;1.85;;;;;;;4.93;86.56;98999.45;2865926;83;20992;-73
2022/01/06 00:52:00;;;;;;;4.00;1.60;;;;;;;4.96;86.63;99009.75;2866355;83;21015;-73
2022/01/06 00:56:05;;;;;;;3.55;2.15;;;;;;;4.96;86.38;99011.53;2855549;83;21423;-73
2022/01/06 01:00:11;;;;;;;2.95;2.25;;;;;;;4.98;86.28;99008.30;2875857;82;21035;-72
2022/01/06 01:04:13;;;;;;;3.40;1.57;;;;;;;4.96;85.65;99008.43;2875412;82;21690;-73
2022/01/06 01:08:15;;;;;;;3.25;1.62;;;;;;;4.94;85.69;99018.26;2874128;83;21081;-71
2022/01/06 01:12:16;;;;;;;2.37;1.40;;;;;;;4.95;85.87;99021.72;2874741;82;20975;-71
2022/01/06 01:16:24;;;;;;;3.75;2.08;;;;;;;5.04;85.97;99022.79;2876412;82;21007;-72
2022/01/06 01:20:25;;;;;;;3.80;1.95;;;;;;;5.05;86.19;99022.68;2962462;80;21507;-72
2022/01/06 01:24:26;;;;;;;3.92;1.90;;;;;;;5.06;86.04;99030.09;2963032;80;20984;-71
2022/01/06 01:28:33;;;;;;;2.33;1.45;;;;;;;5.10;86.13;99026.25;2962611;80;21018;-72
2022/01/06 01:32:35;;;;;;;7.17;2.45;;;;;;;5.12;86.29;99029.62;2877547;82;21093;-73
2022/01/06 01:36:36;;;;;;;2.15;1.75;;;;;;;5.20;86.11;99036.44;2962068;80;20980;-74
2022/01/06 01:40:39;;;;;;;4.22;2.50;;;;;;;5.33;85.64;99040.73;2962582;80;21019;-70
2022/01/06 01:44:42;;;;;;;3.33;2.12;;;;;;;5.47;85.22;99041.77;2959321;80;21039;-73
2022/01/06 01:49:10;;;;;;;7.55;2.85;;;;;;;5.39;85.06;99049.47;2911359;82;21039;-71
2022/01/06 01:52:57;;;;;;;12.30;2.98;;;;;;;5.39;85.21;99057.38;2947944;80;21023;-73
2022/01/06 01:56:59;;;;;;;4.92;2.77;;;;;;;5.33;85.95;99052.61;2871325;83;21276;-72
2022/01/06 02:01:00;;;;;;;2.20;0.93;;;;;;;5.26;87.89;99068.89;2911099;82;21421;-71
2022/01/06 02:05:03;;;;;;;6.10;1.05;;;;;;;4.65;87.22;99074.04;2953177;80;21000;-72
2022/01/06 02:09:05;;;;;;;1.00;0.50;;;;;;;4.21;89.21;99078.26;2921054;81;20970;-72
2022/01/06 02:13:06;;;;;;;2.30;1.12;;;;;;;4.04;91.19;99079.03;2910192;82;21015;-72
2022/01/06 02:17:08;;;;;;;3.95;0.65;;;;;;;3.98;92.37;99086.08;2951592;80;21055;-72
2022/01/06 02:21:09;;;;;;;0.80;0.50;;;;;;;3.80;93.92;99091.73;2947036;80;21064;-72
2022/01/06 02:25:30;;;;;;;3.52;0.57;;;;;;;3.67;94.50;99085.67;2947094;80;21037;-73
2022/01/06 02:29:33;;;;;;;1.20;0.55;;;;;;;3.63;94.59;99080.27;2946464;80;21370;-72
2022/01/06 02:33:35;;;;;;;3.25;1.62;;;;;;;3.68;94.98;99084.26;2946642;80;21024;-72
2022/01/06 02:37:37;;;;;;;2.87;2.20;;;;;;;3.76;95.43;99082.85;2946647;80;21056;-73
2022/01/06 02:41:39;;;;;;;2.37;1.87;;;;;;;3.91;95.18;99079.56;2946226;80;21005;-72
2022/01/06 02:45:42;;;;;;;1.10;1.00;;;;;;;3.91;95.15;99074.30;2946861;80;21080;-69
2022/01/06 02:49:45;;;;;;;1.55;1.42;;;;;;;3.96;95.05;99079.59;2946637;80;21073;-72
2022/01/06 02:53:53;;;;;;;6.22;2.80;;;;;;;4.11;94.61;99088.14;2948753;80;21031;-71
2022/01/06 02:57:54;;;;;;;4.37;2.65;;;;;;;4.19;95.01;99092.02;2949634;80;21027;-73
2022/01/06 03:01:56;;;;;;;2.45;1.90;;;;;;;4.32;95.13;99086.17;2949459;80;21662;-72
2022/01/06 03:05:58;;;;;;;3.40;2.50;;;;;;;4.35;94.15;99082.02;2949385;80;21519;-72
2022/01/06 03:10:03;;;;;;;6.03;2.75;;;;;;;4.40;94.02;99081.19;2949519;80;20984;-73
2022/01/06 03:14:04;;;;;;;4.22;2.55;;;;;;;4.45;93.57;99087.43;2949375;80;21046;-72
2022/01/06 03:18:05;;;;;;;2.08;1.50;;;;;;;4.40;93.24;99081.19;2949181;80;21410;-74
2022/01/06 03:22:07;;;;;;;2.22;1.62;;;;;;;4.46;93.23;99080.35;2949235;80;21003;-73
2022/01/06 03:26:09;;;;;;;6.97;2.12;;;;;;;4.60;93.44;99077.52;2949049;80;21026;-69
2022/01/06 03:30:18;;;;;;;3.83;2.20;;;;;;;4.77;93.17;99091.19;2949375;80;21023;-72
2022/01/06 03:34:19;;;;;;;4.20;2.20;;;;;;;4.86;93.00;99096.59;2949592;80;21039;-72
2022/01/06 03:38:21;;;;;;;3.12;2.77;;;;;;;4.79;93.20;99103.77;2949750;79;21702;-71
2022/01/06 03:42:23;;;;;;;4.95;3.00;;;;;;;4.69;93.84;99113.67;2950072;80;20987;-72
2022/01/06 03:46:24;;;;;;;1.47;1.20;;;;;;;4.82;93.17;99111.43;2950339;80;21042;-71
2022/01/06 03:50:27;;;;;;;3.33;1.70;;;;;;;4.64;91.25;99111.88;2950220;80;20991;-72
2022/01/06 03:54:28;;;;;;;1.55;0.80;;;;;;;4.47;90.14;99108.36;2949681;80;21069;-74
2022/01/06 03:58:30;;;;;;;1.50;0.60;;;;;;;4.40;89.98;99116.73;2949296;80;21031;-71
2022/01/06 04:02:31;;;;;;;2.15;1.52;;;;;;;4.21;90.30;99128.27;2918101;80;21006;-72
2022/01/06 04:06:34;;;;;;;2.00;0.93;;;;;;;4.17;90.85;99137.35;2898938;82;21007;-74
2022/01/06 04:10:35;;;;;;;1.95;1.15;;;;;;;4.04;91.17;99129.52;2898492;81;21015;-72
2022/01/06 04:14:37;;;;;;;1.80;0.90;;;;;;;3.96;91.29;99124.82;2897825;81;21047;-73
2022/01/06 04:18:40;;;;;;;1.40;0.98;;;;;;;3.92;91.62;99140.44;2897138;81;21027;-73
2022/01/06 04:22:42;;;;;;;1.75;1.62;;;;;;;3.83;92.04;99150.69;2897718;82;21046;-73
2022/01/06 04:26:44;;;;;;;2.37;0.80;;;;;;;3.81;92.27;99160.95;2897386;80;21066;-72
2022/01/06 04:30:45;;;;;;;3.45;1.42;;;;;;;3.85;92.05;99164.58;2905429;80;21028;-74
2022/01/06 04:34:47;;;;;;;2.87;0.98;;;;;;;3.80;91.99;99174.59;2948771;80;20985;-72
2022/01/06 04:38:50;;;;;;;3.02;2.50;;;;;;;3.86;91.86;99188.61;2948403;80;21060;-74
2022/01/06 04:42:51;;;;;;;11.30;1.95;;;;;;;3.91;91.23;99191.38;2948727;80;20993;-73
2022/01/06 04:46:53;;;;;;;2.95;1.40;;;;;;;3.91;91.24;99193.55;2948637;80;21036;-74
2022/01/06 04:50:54;;;;;;;2.80;1.60;;;;;;;3.91;91.79;99208.48;2949154;80;21048;-74
2022/01/06 04:54:56;;;;;;;3.52;1.70;;;;;;;3.86;92.35;99201.77;2915690;81;21020;-70
2022/01/06 04:58:58;;;;;;;3.22;2.55;;;;;;;3.94;92.27;99218.82;2879692;82;21093;-74
2022/01/06 05:03:00;;;;;;;5.30;3.00;;;;;;;3.95;91.63;99215.23;2915641;81;20993;-72
2022/01/06 05:07:01;;;;;;;4.87;1.47;;;;;;;3.95;91.95;99221.81;2929800;81;21584;-75
2022/01/06 05:11:05;;;;;;;2.95;1.77;;;;;;;3.93;90.86;99232.44;2921097;81;21070;-75
2022/01/06 05:15:07;;;;;;;5.03;2.75;;;;;;;4.02;90.64;99237.52;2851492;82;21081;-74
2022/01/06 05:19:09;;;;;;;2.75;1.50;;;;;;;3.91;89.23;99238.28;2851358;83;21099;-73
2022/01/06 05:23:12;;;;;;;3.25;1.90;;;;;;;3.91;90.16;99244.01;2851751;83;20999;-75
2022/01/06 05:27:14;;;;;;;2.83;2.35;;;;;;;4.12;90.27;99246.42;2852091;83;21082;-73
2022/01/06 05:31:16;;;;;;;5.92;1.80;;;;;;;4.19;88.67;99257.84;2852314;83;21248;-74
2022/01/06 05:35:19;;;;;;;4.67;2.42;;;;;;;4.25;88.27;99256.94;2852403;83;21019;-73
2022/01/06 05:39:20;;;;;;;1.05;0.95;;;;;;;4.32;87.89;99269.16;2855675;81;21015;-72
2022/01/06 05:43:23;;;;;;;3.05;1.05;;;;;;;4.39;87.99;99269.55;2876718;81;21011;-72
2022/01/06 05:47:25;;;;;;;3.67;2.35;;;;;;;4.34;87.61;99293.61;2845848;82;21586;-73
2022/01/06 05:51:27;;;;;;;4.05;2.33;;;;;;;4.08;88.94;99277.86;2839480;84;21051;-75
2022/01/06 05:55:29;;;;;;;4.60;1.75;;;;;;;3.75;88.83;99316.59;2839191;83;20999;-74
2022/01/06 05:59:32;;;;;;;4.33;2.45;;;;;;;3.43;90.79;99311.28;2874065;82;21000;-72
2022/01/06 06:03:35;;;;;;;4.55;1.67;;;;;;;3.44;91.04;99337.94;2888446;82;20972;-74
2022/01/06 06:07:38;;;;;;;8.53;2.30;;;;;;;3.22;90.25;99343.33;2888084;82;21579;-74
2022/01/06 06:11:40;;;;;;;5.87;3.25;;;;;;;3.05;90.03;99347.08;2876196;82;21534;-74
2022/01/06 06:15:41;;;;;;;3.58;2.12;;;;;;;2.87;90.82;99345.66;2839418;84;21011;-70
2022/01/06 06:19:43;;;;;;;7.00;2.75;;;;;;;2.89;91.66;99361.66;2839584;83;21047;-74
2022/01/06 06:23:47;;;;;;;2.45;1.90;;;;;;;2.87;91.54;99371.92;2839858;84;21000;-72
2022/01/06 06:27:48;;;;;;;8.08;1.32;;;;;;;2.84;90.97;99396.59;2839702;84;21023;-73
2022/01/06 06:31:50;;;;;;;4.92;2.58;;;;;;;2.81;90.25;99394.99;2843707;81;21019;-72
2022/01/06 06:35:52;;;;;;;3.70;2.40;;;;;;;2.82;89.80;99406.36;2874546;82;20991;-73
2022/01/06 06:39:54;;;;;;;7.78;4.20;;;;;;;2.78;88.79;99416.69;2841871;82;21547;-73
2022/01/06 06:43:56;;;;;;;4.47;1.65;;;;;;;2.78;89.44;99425.88;2839978;84;21046;-72
2022/01/06 06:47:58;;;;;;;4.33;2.15;;;;;;;2.79;88.26;99427.56;2839546;84;21023;-72
2022/01/06 06:51:59;;;;;;;1.30;1.20;;;;;;;2.85;88.39;99445.55;2840567;83;21039;-73
2022/01/06 06:56:03;;;;;;;4.03;2.58;;;;;;;2.70;87.22;99454.77;2840093;83;21040;-73
2022/01/06 07:00:08;;;;;;;2.65;1.35;;;;;;;2.65;86.06;99444.17;2840221;84;21722;-72
2022/01/06 07:04:10;;;;;;;5.40;2.90;;;;;;;2.64;86.04;99463.03;2888035;82;21043;-69
2022/01/06 07:08:11;;;;;;;7.80;2.92;;;;;;;2.69;85.98;99476.72;2889715;82;20999;-72
2022/01/06 07:12:13;;;;;;;2.62;1.42;;;;;;;2.69;86.51;99486.39;2889843;82;21551;-71
2022/01/06 07:16:15;;;;;;;6.92;2.47;;;;;;;2.72;86.32;99494.08;2889283;82;21052;-72
2022/01/06 07:20:17;;;;;;;2.72;2.37;;;;;;;2.74;86.12;99498.77;2889165;82;21504;-72
2022/01/06 07:24:19;;;;;;;6.05;2.27;;;;;;;2.70;86.06;99509.91;2889684;82;21012;-72
2022/01/06 07:28:21;;;;;;;5.28;3.80;;;;;;;2.74;85.92;99515.83;2889543;82;21019;-72
2022/01/06 07:32:24;;;;;;;6.42;2.67;;;;;;;2.71;85.66;99532.61;2889639;82;21023;-71
2022/01/06 07:36:26;;;;;;;4.45;1.50;;;;;;;2.68;86.05;99541.17;2889425;82;20999;-71
2022/01/06 07:40:27;;;;;;;6.40;2.45;;;;;;;2.60;84.66;99556.53;2889524;82;21058;-72
2022/01/06 07:44:29;;;;;;;2.50;1.62;;;;;;;2.69;85.43;99558.61;2889717;82;20979;-72
2022/01/06 07:48:47;;;;;;;3.75;1.80;;;;;;;2.63;84.21;99548.46;2884910;82;21004;-71
2022/01/06 07:52:35;;;;;;;8.93;6.15;;;;;;;2.57;82.38;99558.41;2881401;82;21008;-71
2022/01/06 07:56:37;;;;;;;7.35;2.40;;;;;;;2.69;81.78;99578.31;2884668;82;21055;-72
2022/01/06 08:00:38;;;;;;;2.37;1.85;;;;;;;2.64;80.96;99577.27;2884421;82;21031;-71
2022/01/06 08:04:40;;;;;;;2.55;2.22;;;;;;;2.62;80.31;99591.41;2884908;82;21003;-70
2022/01/06 08:08:43;;;;;;;2.30;1.30;;;;;;;2.59;79.04;99602.97;2884974;82;20999;-70
2022/01/06 08:12:46;;;;;;;10.13;2.42;;;;;;;2.51;78.69;99577.16;2885064;82;21024;-70
2022/01/06 08:16:48;;;;;;;1.67;1.55;;;;;;;2.52;76.41;99577.99;2885145;82;21043;-72
2022/01/06 08:20:50;;;;;;;3.10;1.87;;;;;;;2.42;76.57;99620.56;2838386;82;21039;-72
2022/01/06 08:24:53;;;;;;;10.25;2.65;;;;;;;2.37;75.45;99634.87;2847188;82;21035;-70
2022/01/06 08:28:55;;;;;;;5.20;1.90;;;;;;;2.47;76.96;99633.88;2884897;82;21011;-70
2022/01/06 08:32:57;;;;;;;3.55;1.60;;;;;;;2.37;77.42;99638.36;2883132;82;21108;-71
2022/01/06 08:36:59;;;;;;;6.95;1.40;;;;;;;2.34;76.92;99656.89;2881630;82;21002;-67
2022/01/06 08:41:02;;;;;;;2.40;1.35;;;;;;;2.19;74.48;99683.55;2823606;83;21024;-71
2022/01/06 08:45:07;;;;;;;4.33;1.37;;;;;;;2.27;75.00;99693.63;2872954;83;21031;-71
2022/01/06 08:49:11;;;;;;;3.85;1.87;;;;;;;2.18;73.46;99703.34;2873238;83;21004;-70
2022/01/06 08:53:13;;;;;;;2.27;1.17;;;;;;;1.97;72.97;99720.66;2822619;84;21396;-70
2022/01/06 08:57:15;;;;;;;2.05;1.47;;;;;;;2.03;72.55;99719.00;2861741;83;21070;-71
2022/01/06 09:01:17;;;;;;;4.03;1.15;;;;;;;1.95;70.13;99723.36;2901704;82;21098;-71
2022/01/06 09:05:20;;;;;;;0.82;0.65;;;;;;;1.90;71.36;99742.89;2865689;82;21053;-70
2022/01/06 09:09:22;;;;;;;4.37;1.40;;;;;;;1.92;70.62;99755.00;2952575;80;20999;-71
2022/01/06 09:13:24;;;;;;;2.00;1.25;;;;;;;1.88;71.26;99778.86;2909759;81;21035;-71
2022/01/06 09:17:26;;;;;;;4.17;1.37;;;;;;;2.19;68.94;99753.09;2950498;80;21047;-71
2022/01/06 09:21:29;;;;;;;4.35;1.87;;;;;;;2.20;69.91;99795.95;2870723;83;20981;-71
2022/01/06 09:25:33;;;;;;;2.00;0.98;;;;;;;2.20;70.25;99788.91;2862114;83;21003;-71
2022/01/06 09:29:35;;;;;;;4.47;1.15;;;;;;;2.04;70.18;99800.71;2902253;82;21078;-69
2022/01/06 09:33:37;;;;;;;8.48;2.90;;;;;;;1.98;69.02;99807.61;2861778;83;21011;-70
2022/01/06 09:37:39;;;;;;;0.82;0.78;;;;;;;1.72;67.21;99855.72;2902419;82;20979;-71
2022/01/06 09:41:41;;;;;;;1.62;1.02;;;;;;;1.76;66.50;99833.64;2862117;83;21114;-71
2022/01/06 09:45:44;;;;;;;3.60;1.50;;;;;;;1.67;65.77;99844.62;2917681;80;20984;-71
2022/01/06 09:49:46;;;;;;;5.28;0.85;;;;;;;1.61;66.90;99847.58;2955365;80;21055;-69
2022/01/06 09:53:48;;;;;;;0.50;0.50;;;;;;;1.76;69.20;99840.20;2955697;80;20999;-71
2022/01/06 09:57:59;;;;;;;1.07;0.68;;;;;;;1.75;68.09;99859.48;2955517;80;21011;-72
2022/01/06 10:02:01;;;;;;;2.60;1.05;;;;;;;1.79;69.44;99863.67;2954612;80;21015;-71
2022/01/06 10:06:18;;;;;;;1.72;1.50;;;;;;;1.68;67.84;99869.47;2954621;80;21007;-72
2022/01/06 10:10:25;;;;;;;7.78;3.30;;;;;;;1.84;68.69;99868.66;2954947;80;21034;-71
2022/01/06 10:14:42;;;;;;;7.33;1.45;;;;;;;1.83;67.61;99864.33;2955424;80;21464;-73
2022/01/06 10:18:43;;;;;;;2.92;0.98;;;;;;;1.73;65.79;99871.00;2865582;83;21051;-73
2022/01/06 10:22:52;;;;;;;1.70;1.30;;;;;;;1.71;67.62;99825.18;2861281;83;20996;-76
2022/01/06 10:26:57;;;;;;;2.83;0.95;;;;;;;1.84;68.94;99862.95;2863249;83;21007;-74
2022/01/06 10:30:59;;;;;;;4.33;1.82;;;;;;;1.99;67.72;99856.05;2863356;83;21015;-75
2022/01/06 10:35:02;;;;;;;2.77;2.33;;;;;;;2.19;68.77;99891.35;2864577;83;21063;-72
2022/01/06 10:39:08;;;;;;;4.72;1.60;;;;;;;2.14;69.50;99874.05;2864945;83;21654;-73
2022/01/06 10:43:09;;;;;;;5.47;2.35;;;;;;;2.46;70.93;99882.91;2865433;83;21062;-72
2022/01/06 10:47:11;;;;;;;1.37;1.27;;;;;;;2.51;71.13;99884.81;2867523;82;21074;-74
2022/01/06 10:51:14;;;;;;;15.48;5.50;;;;;;;2.50;71.56;99881.80;2869934;83;30680;-74
2022/01/06 10:55:31;;;;;;;8.35;1.55;;;;;;;2.23;68.94;99892.88;2866338;81;21050;-75
2022/01/06 10:59:34;;;;;;;2.37;1.72;;;;;;;2.29;71.62;99892.55;2867962;83;21058;-72
2022/01/06 11:03:36;;;;;;;5.33;2.35;;;;;;;2.34;72.18;99894.92;2868637;82;21047;-73
2022/01/06 11:07:38;;;;;;;2.52;1.32;;;;;;;2.33;71.25;99886.19;2868378;83;21089;-68
2022/01/06 11:15:56;;;;;;;3.67;1.90;;;;;;;2.74;73.11;99890.11;2868852;83;21027;-73
2022/01/06 11:19:59;;;;;;;2.42;1.30;;;;;;;2.96;72.32;99885.83;2947961;80;21098;-74
2022/01/06 11:24:17;;;;;;;7.50;2.08;;;;;;;2.96;72.42;99893.71;2922410;81;21018;-73
2022/01/06 11:28:19;;;;;;;2.47;1.65;;;;;;;3.06;71.07;99882.66;2916604;81;20995;-70
2022/01/06 11:32:23;;;;;;;6.47;1.70;;;;;;;2.80;71.25;99871.86;2916115;81;21019;-74
2022/01/06 11:36:35;;;;;;;5.40;2.95;;;;;;;2.79;71.42;99878.05;2916254;81;21046;-74
2022/01/06 11:40:40;;;;;;;5.67;1.77;;;;;;;2.77;71.30;99891.25;2916634;81;21007;-68
2022/01/06 11:44:53;;;;;;;3.15;1.37;;;;;;;2.87;71.27;99902.58;2916424;81;21062;-69
2022/01/06 11:48:58;;;;;;;8.58;3.08;;;;;;;2.82;71.97;99908.91;2916603;80;20975;-74
2022/01/06 11:53:01;;;;;;;44.35;22.62;;;;;;;2.84;70.08;99918.86;2868815;83;21105;-72
2022/01/06 11:57:03;;;;;;;14.35;8.53;;;;;;;2.82;68.90;99920.73;2900149;82;21034;-69
2022/01/06 12:01:08;;;;;;;28.00;10.58;;;;;;;2.80;70.16;99919.97;2866973;83;20995;-71
2022/01/06 12:05:10;;;;;;;17.75;5.78;;;;;;;2.84;69.16;99925.91;2896805;82;21093;-75
2022/01/06 12:09:21;;;;;;;8.95;6.00;;;;;;;2.87;68.99;99921.80;2866117;83;21078;-71
2022/01/06 12:13:22;;;;;;;23.55;12.82;;;;;;;3.01;67.71;99922.34;2897993;82;21069;-70
2022/01/06 12:17:26;;;;;;;9.18;4.47;;;;;;;3.08;67.12;99905.76;2866923;83;21086;-71
2022/01/06 12:21:28;;;;;;;8.60;3.00;;;;;;;3.13;66.89;99902.39;2896645;82;20988;-71
2022/01/06 12:25:30;;;;;;;5.75;1.42;;;;;;;3.18;67.36;99931.91;2866853;83;21046;-70
2022/01/06 12:29:38;;;;;;;5.70;2.75;;;;;;;3.39;66.84;99920.62;2898832;82;20987;-69
2022/01/06 12:33:49;;;;;;;12.93;4.95;;;;;;;3.39;68.46;99923.73;2867546;83;21091;-68
2022/01/06 12:37:58;;;;;;;5.40;2.72;;;;;;;3.34;64.96;99955.54;2899267;82;20948;-69
2022/01/06 12:42:04;;;;;;;13.48;4.35;;;;;;;3.32;61.92;99946.03;2849599;82;21065;-70
2022/01/06 12:46:12;;;;;;;2.92;1.57;;;;;;;3.31;62.51;99958.80;2866591;81;21420;-70
2022/01/06 12:50:13;;;;;;;6.62;3.70;;;;;;;3.37;63.30;99961.94;2900213;80;21614;-71
2022/01/06 12:54:21;;;;;;;3.77;1.50;;;;;;;3.36;63.38;99970.76;2868245;81;21047;-67
2022/01/06 12:58:30;;;;;;;5.42;2.20;;;;;;;3.18;63.22;99977.91;2901473;82;20939;-70
2022/01/06 13:02:32;;;;;;;8.25;2.45;;;;;;;3.13;62.35;99969.41;2870052;81;21078;-68
2022/01/06 13:06:36;;;;;;;49.10;25.30;;;;;;;2.93;61.27;99985.82;2899791;82;21061;-70
2022/01/06 13:10:38;;;;;;;6.33;3.98;;;;;;;2.84;62.18;99992.91;2868776;83;21035;-68
2022/01/06 13:14:46;;;;;;;12.75;8.35;;;;;;;3.02;65.61;100020.42;2898648;81;21042;-69
2022/01/06 13:19:14;;;;;;;2.02;1.00;;;;;;;3.08;64.60;100027.52;2866483;83;21082;-69
2022/01/06 13:27:30;;;;;;;3.62;1.27;;;;;;;3.32;61.41;100035.42;2867235;83;21298;-68
2022/01/06 13:31:32;;;;;;;4.72;3.17;;;;;;;3.05;58.35;100053.11;2898460;82;21003;-71
2022/01/06 13:35:47;;;;;;;4.22;2.08;;;;;;;3.11;60.37;100064.59;2867810;81;21042;-70
2022/01/06 13:39:52;;;;;;;5.20;2.05;;;;;;;2.96;59.86;100066.27;2898418;82;20979;-70
2022/01/06 13:43:58;;;;;;;6.22;2.17;;;;;;;2.81;60.94;100077.14;2868229;83;21012;-70
2022/01/06 13:48:10;;;;;;;4.70;1.35;;;;;;;2.79;62.34;100093.45;2898359;80;21448;-68
2022/01/06 13:52:21;;;;;;;4.70;3.20;;;;;;;2.66;60.29;100088.83;2866665;83;21090;-68
2022/01/06 13:56:32;;;;;;;5.58;2.10;;;;;;;2.78;61.82;100097.84;2899224;82;20947;-68
2022/01/06 14:00:34;;;;;;;1.92;0.90;;;;;;;2.80;61.74;100105.66;2867761;83;21090;-74
2022/01/06 14:04:40;;;;;;;10.68;1.40;;;;;;;2.69;61.14;100108.37;2898207;82;21018;-69
2022/01/06 14:08:43;;;;;;;5.53;1.77;;;;;;;2.66;61.72;100117.72;2867427;83;21019;-68
2022/01/06 14:12:44;;;;;;;3.92;1.30;;;;;;;2.78;61.79;100118.03;2898291;82;21007;-70
2022/01/06 14:16:46;;;;;;;5.00;2.98;;;;;;;2.70;62.83;100127.62;2865685;83;21026;-70
2022/01/06 14:20:48;;;;;;;3.10;1.15;;;;;;;2.75;63.12;100135.23;2897624;82;21022;-71
2022/01/06 14:24:49;;;;;;;3.12;2.25;;;;;;;2.79;61.89;100152.56;2865686;83;21043;-72
2022/01/06 14:28:51;;;;;;;4.37;2.08;;;;;;;2.88;62.03;100153.87;2895158;82;20979;-75
2022/01/06 14:32:52;;;;;;;12.58;3.62;;;;;;;2.75;62.63;100154.94;2871124;83;21047;-74
2022/01/06 14:36:55;;;;;;;4.15;2.15;;;;;;;2.85;62.86;100168.00;2903613;82;21018;-74
2022/01/06 14:40:57;;;;;;;2.12;1.05;;;;;;;2.72;61.53;100173.04;2871883;83;20999;-73
2022/01/06 14:44:59;;;;;;;14.15;7.45;;;;;;;2.68;60.99;100185.47;2903788;82;21085;-74
2022/01/06 14:49:00;;;;;;;37.13;16.87;;;;;;;2.68;60.85;100185.47;2903816;82;21356;-74
2022/01/06 14:53:02;;;;;;;18.70;5.58;;;;;;;2.65;60.86;100211.89;2904718;82;20979;-72
2022/01/06 14:57:04;;;;;;;40.20;17.25;;;;;;;2.63;61.37;100215.51;2873455;83;21003;-73
2022/01/06 15:01:09;;;;;;;3.45;1.90;;;;;;;2.61;61.76;100219.99;2904662;82;21050;-74
2022/01/06 15:05:11;;;;;;;4.50;1.80;;;;;;;2.50;61.91;100225.78;2854995;83;21033;-73
2022/01/06 15:09:13;;;;;;;6.55;3.33;;;;;;;2.42;62.90;100234.03;2873546;83;20980;-72
2022/01/06 15:13:14;;;;;;;5.15;2.37;;;;;;;2.42;63.61;100238.83;2904742;82;20927;-74
2022/01/06 15:17:16;;;;;;;4.45;3.15;;;;;;;2.34;64.23;100244.89;2854984;83;20993;-72
2022/01/06 15:21:18;;;;;;;41.98;17.80;;;;;;;2.33;64.13;100255.49;2873670;83;21054;-72
2022/01/06 15:25:19;;;;;;;174.68;75.97;;;;;;;2.23;64.14;100255.91;2902368;82;21109;-74
2022/01/06 15:29:22;;;;;;;127.30;55.23;;;;;;;2.24;64.55;100260.72;2855137;83;20978;-74
2022/01/06 15:33:23;;;;;;;109.42;56.35;;;;;;;2.23;63.40;100274.28;2873639;83;21043;-74
2022/01/06 15:37:25;;;;;;;46.28;27.37;;;;;;;2.17;64.07;100286.39;2904701;82;21035;-70
2022/01/06 15:41:27;;;;;;;18.55;11.53;;;;;;;2.13;64.32;100298.80;2873449;83;20984;-74
2022/01/06 15:45:29;;;;;;;5.35;3.83;;;;;;;2.13;63.98;100300.11;2904585;82;21023;-73
2022/01/06 15:49:30;;;;;;;14.78;6.00;;;;;;;2.07;65.23;100304.82;2850207;82;21091;-75
2022/01/06 15:53:32;;;;;;;12.43;2.02;;;;;;;2.00;64.22;100323.92;2865498;83;21011;-73
2022/01/06 15:57:34;;;;;;;3.25;1.92;;;;;;;1.91;63.76;100329.58;2865166;83;21028;-73
2022/01/06 16:04:59;;;;;;;3.90;2.15;;;;;;;1.95;62.93;100335.06;2865374;83;21324;-73
2022/01/06 16:05:44;;;;;;;6.33;4.72;;;;;;;1.90;63.44;100342.30;2861528;83;21104;-74
2022/01/06 16:09:46;;;;;;;13.18;7.75;;;;;;;1.83;63.75;100355.70;2865236;83;21579;-73
2022/01/06 16:13:48;;;;;;;8.70;6.85;;;;;;;1.78;63.98;100355.06;2865348;83;21014;-71
2022/01/06 16:17:50;;;;;;;5.00;3.25;;;;;;;1.74;64.34;100373.61;2865535;83;21015;-68
2022/01/06 16:21:53;;;;;;;5.55;3.60;;;;;;;1.75;64.11;100376.63;2865263;83;21035;-74
2022/01/06 16:25:55;;;;;;;9.78;5.85;;;;;;;1.73;65.65;100387.65;2865459;83;21015;-74
2022/01/06 16:30:02;;;;;;;7.15;4.17;;;;;;;1.63;66.43;100388.50;2865247;83;21019;-74
2022/01/06 16:34:04;;;;;;;9.45;5.33;;;;;;;1.51;67.10;100402.52;2865383;83;21011;-72
2022/01/06 16:38:06;;;;;;;4.65;2.42;;;;;;;1.46;66.55;100407.11;2865411;83;20991;-73
2022/01/06 16:42:11;;;;;;;3.72;2.75;;;;;;;1.41;67.89;100414.32;2865394;83;21039;-73
2022/01/06 16:46:13;;;;;;;7.85;4.20;;;;;;;1.34;68.12;100412.85;2865330;83;21040;-73
2022/01/06 16:50:14;;;;;;;9.45;5.22;;;;;;;1.16;69.02;100421.86;2869972;82;21070;-73
2022/01/06 16:54:16;;;;;;;10.55;6.95;;;;;;;1.12;68.75;100429.45;2952020;80;20988;-73
2022/01/06 16:58:18;;;;;;;12.18;6.12;;;;;;;1.13;68.57;100437.27;2870839;83;21009;-74
2022/01/06 17:02:19;;;;;;;18.65;8.85;;;;;;;1.09;70.81;100432.20;2910518;82;21003;-73
2022/01/06 17:06:24;;;;;;;13.35;9.58;;;;;;;0.94;73.18;100427.96;2952322;80;20983;-73
2022/01/06 17:10:25;;;;;;;14.90;7.67;;;;;;;0.75;74.11;100438.76;2870877;83;20957;-73
2022/01/06 17:14:27;;;;;;;15.50;9.70;;;;;;;0.67;74.23;100454.31;2911012;82;21043;-73
2022/01/06 17:18:29;;;;;;;23.45;9.93;;;;;;;0.59;75.26;100458.13;2952070;80;21007;-73
2022/01/06 17:22:30;;;;;;;22.58;9.20;;;;;;;0.55;75.65;100463.93;2870722;83;21028;-73
2022/01/06 17:26:32;;;;;;;27.75;12.07;;;;;;;0.49;75.94;100470.71;2910501;82;21015;-73
2022/01/06 17:30:35;;;;;;;17.17;9.98;;;;;;;0.54;75.80;100476.63;2952038;80;20992;-74
2022/01/06 17:34:36;;;;;;;16.77;9.40;;;;;;;0.52;76.31;100480.63;2870986;83;21052;-73
2022/01/06 17:38:38;;;;;;;15.98;8.58;;;;;;;0.42;77.29;100480.11;2910765;82;21054;-72
2022/01/06 17:42:40;;;;;;;14.78;7.08;;;;;;;0.42;77.39;100480.11;2952517;80;20983;-73
2022/01/06 17:46:42;;;;;;;13.68;7.58;;;;;;;0.43;77.91;100496.65;2910889;82;21043;-73
2022/01/06 17:50:43;;;;;;;12.05;8.38;;;;;;;0.40;78.30;100505.92;2952066;80;21103;-73
2022/01/06 17:54:45;;;;;;;7.15;4.45;;;;;;;0.44;78.88;100511.44;2910509;82;21567;-72
2022/01/06 17:58:47;;;;;;;8.05;6.03;;;;;;;0.34;79.26;100509.61;2952143;80;20999;-73
2022/01/06 18:02:49;;;;;;;10.45;5.28;;;;;;;0.32;79.52;100516.66;2910153;82;21055;-73
2022/01/06 18:06:54;;;;;;;8.50;6.10;;;;;;;0.33;79.84;100521.46;2951808;80;20976;-73
2022/01/06 18:15:10;;;;;;;14.87;8.00;;;;;;;0.21;79.84;100531.91;2910496;82;21074;-73
2022/01/06 18:19:14;;;;;;;22.45;7.92;;;;;;;0.20;80.35;100531.51;2951403;80;21071;-73
2022/01/06 18:23:18;;;;;;;13.25;7.15;;;;;;;0.17;80.83;100523.30;2910830;82;21066;-73
2022/01/06 18:27:21;;;;;;;9.38;6.37;;;;;;;0.17;81.50;100527.66;2951902;80;21051;-72
2022/01/06 18:31:23;;;;;;;32.42;6.72;;;;;;;0.10;81.87;100527.89;2920534;81;20979;-72
2022/01/06 18:35:25;;;;;;;17.17;10.28;;;;;;;0.11;81.67;100536.13;2870444;83;20982;-72
2022/01/06 18:39:28;;;;;;;29.23;8.10;;;;;;;0.11;81.64;100538.75;2920251;80;20959;-73
2022/01/06 18:43:32;;;;;;;15.18;8.05;;;;;;;0.01;81.90;100537.37;2868244;83;21006;-72
2022/01/06 18:47:33;;;;;;;13.08;7.00;;;;;;;0.07;81.55;100538.45;2920922;81;21566;-72
2022/01/06 18:51:35;;;;;;;13.50;6.22;;;;;;;0.06;81.51;100541.98;2853808;83;20998;-72
2022/01/06 18:55:37;;;;;;;11.20;5.83;;;;;;;0.06;81.53;100552.89;2872662;83;21012;-72
2022/01/06 18:59:39;;;;;;;11.15;6.35;;;;;;;0.06;81.67;100556.37;2903021;82;21018;-71
2022/01/06 19:03:42;;;;;;;12.00;5.83;;;;;;;0.06;81.30;100560.30;2904089;82;20978;-72
2022/01/06 19:07:44;;;;;;;14.13;5.80;;;;;;;0.12;81.11;100567.92;2872626;83;20988;-72
2022/01/06 19:11:47;;;;;;;9.83;5.58;;;;;;;0.13;80.79;100568.33;2903729;82;20986;-72
2022/01/06 19:15:49;;;;;;;11.33;5.87;;;;;;;0.13;80.41;100580.09;2853004;83;20993;-72
2022/01/06 19:19:51;;;;;;;13.05;7.70;;;;;;;0.17;79.91;100579.98;2831744;83;21528;-71
2022/01/06 19:23:52;;;;;;;13.68;8.85;;;;;;;0.38;79.70;100584.95;2897864;81;20974;-74
2022/01/06 19:27:54;;;;;;;9.48;7.58;;;;;;;0.47;79.04;100589.86;2863369;81;21002;-73